sensor_id;sensor_type;location;lat;lon;timestamp;P1;durP1;ratioP1;P2;durP2;ratioP2
4873;SDS011;2451;49.970;9.068;2023-02-21T00:01:33;8.77;;;3.45;;
4873;SDS011;2451;49.970;9.068;2023-02-21T00:04:17;7.97;;;3.60;;
4873;SDS011;2451;49.970;9.068;2023-02-21T00:07:02;6.82;;;3.42;;
4873;SDS011;2451;49.970;9.068;2023-02-21T00:09:46;8.85;;;3.88;;
4873;SDS011;2451;49.970;9.068;2023-02-21T00:12:30;6.75;;;3.30;;
4873;SDS011;2451;49.970;9.068;2023-02-21T00:15:14;9.48;;;3.47;;
4873;SDS011;2451;49.970;9.068;2023-02-21T00:17:58;8.38;;;3.20;;
4873;SDS011;2451;49.970;9.068;2023-02-21T00:20:42;7.65;;;3.10;;
4873;SDS011;2451;49.970;9.068;2023-02-21T00:23:26;11.48;;;3.25;;
4873;SDS011;2451;49.970;9.068;2023-02-21T00:26:10;7.35;;;3.33;;
4873;SDS011;2451;49.970;9.068;2023-02-21T00:28:59;7.38;;;3.15;;
4873;SDS011;2451;49.970;9.068;2023-02-21T00:31:44;9.82;;;3.30;;
4873;SDS011;2451;49.970;9.068;2023-02-21T00:34:28;7.00;;;3.55;;
4873;SDS011;2451;49.970;9.068;2023-02-21T00:37:12;10.02;;;4.20;;
4873;SDS011;2451;49.970;9.068;2023-02-21T00:39:56;7.78;;;4.65;;
4873;SDS011;2451;49.970;9.068;2023-02-21T00:42:40;9.65;;;4.80;;
4873;SDS011;2451;49.970;9.068;2023-02-21T00:45:24;13.05;;;8.07;;
4873;SDS011;2451;49.970;9.068;2023-02-21T00:48:08;13.23;;;8.00;;
4873;SDS011;2451;49.970;9.068;2023-02-21T00:50:53;15.82;;;7.32;;
4873;SDS011;2451;49.970;9.068;2023-02-21T00:53:37;11.23;;;6.93;;
4873;SDS011;2451;49.970;9.068;2023-02-21T00:56:21;11.45;;;5.95;;
4873;SDS011;2451;49.970;9.068;2023-02-21T00:59:05;12.77;;;5.38;;
4873;SDS011;2451;49.970;9.068;2023-02-21T01:01:49;10.30;;;6.10;;
4873;SDS011;2451;49.970;9.068;2023-02-21T01:04:33;9.77;;;4.93;;
4873;SDS011;2451;49.970;9.068;2023-02-21T01:07:17;13.07;;;5.10;;
4873;SDS011;2451;49.970;9.068;2023-02-21T01:10:01;10.85;;;5.03;;
4873;SDS011;2451;49.970;9.068;2023-02-21T01:12:46;10.35;;;4.50;;
4873;SDS011;2451;49.970;9.068;2023-02-21T01:15:29;10.10;;;4.38;;
4873;SDS011;2451;49.970;9.068;2023-02-21T01:18:14;12.70;;;4.63;;
4873;SDS011;2451;49.970;9.068;2023-02-21T01:20:58;11.13;;;4.38;;
4873;SDS011;2451;49.970;9.068;2023-02-21T01:23:42;10.30;;;4.22;;
4873;SDS011;2451;49.970;9.068;2023-02-21T01:26:26;8.63;;;4.38;;
4873;SDS011;2451;49.970;9.068;2023-02-21T01:29:10;8.95;;;4.72;;
4873;SDS011;2451;49.970;9.068;2023-02-21T01:31:54;12.27;;;4.15;;
4873;SDS011;2451;49.970;9.068;2023-02-21T01:34:38;13.52;;;4.57;;
4873;SDS011;2451;49.970;9.068;2023-02-21T01:37:22;8.63;;;3.97;;
4873;SDS011;2451;49.970;9.068;2023-02-21T01:40:07;10.73;;;4.00;;
4873;SDS011;2451;49.970;9.068;2023-02-21T01:42:52;7.85;;;3.58;;
4873;SDS011;2451;49.970;9.068;2023-02-21T01:45:46;7.75;;;3.63;;
4873;SDS011;2451;49.970;9.068;2023-02-21T01:48:32;9.50;;;3.63;;
4873;SDS011;2451;49.970;9.068;2023-02-21T01:51:19;9.43;;;3.65;;
4873;SDS011;2451;49.970;9.068;2023-02-21T01:54:06;8.82;;;3.53;;
4873;SDS011;2451;49.970;9.068;2023-02-21T01:56:51;10.00;;;4.00;;
4873;SDS011;2451;49.970;9.068;2023-02-21T01:59:37;9.77;;;3.90;;
4873;SDS011;2451;49.970;9.068;2023-02-21T02:02:30;11.68;;;4.85;;
4873;SDS011;2451;49.970;9.068;2023-02-21T02:05:19;10.40;;;4.88;;
4873;SDS011;2451;49.970;9.068;2023-02-21T02:08:04;15.40;;;4.32;;
4873;SDS011;2451;49.970;9.068;2023-02-21T02:10:50;7.78;;;4.20;;
4873;SDS011;2451;49.970;9.068;2023-02-21T02:16:31;9.68;;;4.22;;
4873;SDS011;2451;49.970;9.068;2023-02-21T02:19:26;9.45;;;4.20;;
4873;SDS011;2451;49.970;9.068;2023-02-21T02:22:37;8.68;;;4.32;;
4873;SDS011;2451;49.970;9.068;2023-02-21T02:25:09;9.02;;;3.88;;
4873;SDS011;2451;49.970;9.068;2023-02-21T02:27:58;11.30;;;4.60;;
4873;SDS011;2451;49.970;9.068;2023-02-21T02:35:59;11.35;;;5.72;;
4873;SDS011;2451;49.970;9.068;2023-02-21T02:38:56;11.00;;;6.13;;
4873;SDS011;2451;49.970;9.068;2023-02-21T02:41:51;14.65;;;6.18;;
4873;SDS011;2451;49.970;9.068;2023-02-21T02:44:31;10.88;;;5.90;;
4873;SDS011;2451;49.970;9.068;2023-02-21T02:47:03;9.40;;;5.18;;
4873;SDS011;2451;49.970;9.068;2023-02-21T02:49:31;13.77;;;6.30;;
4873;SDS011;2451;49.970;9.068;2023-02-21T02:52:05;11.05;;;5.70;;
4873;SDS011;2451;49.970;9.068;2023-02-21T02:54:32;10.68;;;5.07;;
4873;SDS011;2451;49.970;9.068;2023-02-21T02:56:58;9.32;;;5.40;;
4873;SDS011;2451;49.970;9.068;2023-02-21T02:59:26;12.98;;;5.07;;
4873;SDS011;2451;49.970;9.068;2023-02-21T03:01:58;10.68;;;5.10;;
4873;SDS011;2451;49.970;9.068;2023-02-21T03:16:08;9.70;;;4.32;;
4873;SDS011;2451;49.970;9.068;2023-02-21T03:18:43;8.38;;;4.15;;
4873;SDS011;2451;49.970;9.068;2023-02-21T03:21:25;10.55;;;4.20;;
4873;SDS011;2451;49.970;9.068;2023-02-21T03:23:56;12.43;;;4.97;;
4873;SDS011;2451;49.970;9.068;2023-02-21T03:26:26;13.00;;;4.72;;
4873;SDS011;2451;49.970;9.068;2023-02-21T03:28:54;9.82;;;4.20;;
4873;SDS011;2451;49.970;9.068;2023-02-21T03:31:22;8.18;;;3.78;;
4873;SDS011;2451;49.970;9.068;2023-02-21T03:33:52;13.95;;;4.53;;
4873;SDS011;2451;49.970;9.068;2023-02-21T03:36:18;9.00;;;4.55;;
4873;SDS011;2451;49.970;9.068;2023-02-21T03:38:44;9.38;;;4.38;;
4873;SDS011;2451;49.970;9.068;2023-02-21T03:41:10;11.70;;;4.43;;
4873;SDS011;2451;49.970;9.068;2023-02-21T03:43:37;9.93;;;4.78;;
4873;SDS011;2451;49.970;9.068;2023-02-21T03:46:02;11.15;;;5.32;;
4873;SDS011;2451;49.970;9.068;2023-02-21T03:48:28;9.18;;;5.10;;
4873;SDS011;2451;49.970;9.068;2023-02-21T03:50:54;11.13;;;4.22;;
4873;SDS011;2451;49.970;9.068;2023-02-21T03:53:19;10.93;;;5.40;;
4873;SDS011;2451;49.970;9.068;2023-02-21T03:55:45;11.25;;;5.65;;
4873;SDS011;2451;49.970;9.068;2023-02-21T03:58:10;11.98;;;5.10;;
4873;SDS011;2451;49.970;9.068;2023-02-21T04:00:36;9.73;;;4.75;;
4873;SDS011;2451;49.970;9.068;2023-02-21T04:03:01;9.75;;;5.10;;
4873;SDS011;2451;49.970;9.068;2023-02-21T04:05:27;8.52;;;5.43;;
4873;SDS011;2451;49.970;9.068;2023-02-21T04:07:52;8.77;;;5.00;;
4873;SDS011;2451;49.970;9.068;2023-02-21T04:10:18;11.77;;;5.43;;
4873;SDS011;2451;49.970;9.068;2023-02-21T04:12:43;9.80;;;5.20;;
4873;SDS011;2451;49.970;9.068;2023-02-21T04:15:09;12.95;;;6.20;;
4873;SDS011;2451;49.970;9.068;2023-02-21T04:17:35;11.65;;;5.57;;
4873;SDS011;2451;49.970;9.068;2023-02-21T04:20:01;11.38;;;5.72;;
4873;SDS011;2451;49.970;9.068;2023-02-21T04:22:26;12.82;;;6.38;;
4873;SDS011;2451;49.970;9.068;2023-02-21T04:24:52;12.65;;;5.75;;
4873;SDS011;2451;49.970;9.068;2023-02-21T04:27:18;13.35;;;6.13;;
4873;SDS011;2451;49.970;9.068;2023-02-21T04:29:43;12.52;;;6.40;;
4873;SDS011;2451;49.970;9.068;2023-02-21T04:32:09;12.10;;;6.80;;
4873;SDS011;2451;49.970;9.068;2023-02-21T04:34:35;13.38;;;7.72;;
4873;SDS011;2451;49.970;9.068;2023-02-21T04:37:01;12.30;;;7.15;;
4873;SDS011;2451;49.970;9.068;2023-02-21T04:39:26;33.42;;;17.23;;
4873;SDS011;2451;49.970;9.068;2023-02-21T04:41:52;23.45;;;13.00;;
4873;SDS011;2451;49.970;9.068;2023-02-21T04:44:17;14.25;;;8.30;;
4873;SDS011;2451;49.970;9.068;2023-02-21T04:46:43;14.13;;;7.65;;
4873;SDS011;2451;49.970;9.068;2023-02-21T04:49:09;12.93;;;6.97;;
4873;SDS011;2451;49.970;9.068;2023-02-21T04:51:37;13.77;;;7.45;;
4873;SDS011;2451;49.970;9.068;2023-02-21T04:54:02;12.48;;;6.82;;
4873;SDS011;2451;49.970;9.068;2023-02-21T04:56:28;14.63;;;7.43;;
4873;SDS011;2451;49.970;9.068;2023-02-21T04:58:54;12.15;;;7.03;;
4873;SDS011;2451;49.970;9.068;2023-02-21T05:01:20;14.43;;;7.38;;
4873;SDS011;2451;49.970;9.068;2023-02-21T05:03:46;13.93;;;7.47;;
4873;SDS011;2451;49.970;9.068;2023-02-21T05:06:19;15.07;;;7.82;;
4873;SDS011;2451;49.970;9.068;2023-02-21T05:08:53;15.23;;;7.60;;
4873;SDS011;2451;49.970;9.068;2023-02-21T05:11:19;15.45;;;7.70;;
4873;SDS011;2451;49.970;9.068;2023-02-21T05:13:46;12.75;;;7.40;;
4873;SDS011;2451;49.970;9.068;2023-02-21T05:16:12;14.63;;;7.32;;
4873;SDS011;2451;49.970;9.068;2023-02-21T05:18:40;18.80;;;11.50;;
4873;SDS011;2451;49.970;9.068;2023-02-21T05:21:06;17.15;;;10.60;;
4873;SDS011;2451;49.970;9.068;2023-02-21T05:23:33;14.88;;;8.43;;
4873;SDS011;2451;49.970;9.068;2023-02-21T05:26:09;28.73;;;15.27;;
4873;SDS011;2451;49.970;9.068;2023-02-21T05:28:36;17.00;;;11.02;;
4873;SDS011;2451;49.970;9.068;2023-02-21T05:31:03;13.57;;;7.50;;
4873;SDS011;2451;49.970;9.068;2023-02-21T05:33:29;16.38;;;8.73;;
4873;SDS011;2451;49.970;9.068;2023-02-21T05:35:55;23.08;;;14.43;;
4873;SDS011;2451;49.970;9.068;2023-02-21T05:38:21;25.15;;;16.17;;
4873;SDS011;2451;49.970;9.068;2023-02-21T05:40:47;19.77;;;10.65;;
4873;SDS011;2451;49.970;9.068;2023-02-21T05:43:13;19.65;;;12.23;;
4873;SDS011;2451;49.970;9.068;2023-02-21T05:45:39;19.42;;;11.65;;
4873;SDS011;2451;49.970;9.068;2023-02-21T05:48:05;15.23;;;9.02;;
4873;SDS011;2451;49.970;9.068;2023-02-21T05:50:31;11.80;;;7.47;;
4873;SDS011;2451;49.970;9.068;2023-02-21T05:52:57;16.52;;;8.15;;
4873;SDS011;2451;49.970;9.068;2023-02-21T05:55:23;12.70;;;7.60;;
4873;SDS011;2451;49.970;9.068;2023-02-21T05:57:49;15.63;;;8.40;;
4873;SDS011;2451;49.970;9.068;2023-02-21T06:02:45;11.40;;;7.10;;
4873;SDS011;2451;49.970;9.068;2023-02-21T06:05:11;12.93;;;6.38;;
4873;SDS011;2451;49.970;9.068;2023-02-21T06:07:37;10.70;;;6.25;;
4873;SDS011;2451;49.970;9.068;2023-02-21T06:10:03;10.35;;;5.88;;
4873;SDS011;2451;49.970;9.068;2023-02-21T06:12:29;9.60;;;5.85;;
4873;SDS011;2451;49.970;9.068;2023-02-21T06:14:55;10.52;;;5.72;;
4873;SDS011;2451;49.970;9.068;2023-02-21T06:17:20;11.55;;;6.22;;
4873;SDS011;2451;49.970;9.068;2023-02-21T06:19:46;12.18;;;6.10;;
4873;SDS011;2451;49.970;9.068;2023-02-21T06:22:11;9.88;;;5.43;;
4873;SDS011;2451;49.970;9.068;2023-02-21T06:24:37;11.43;;;6.25;;
4873;SDS011;2451;49.970;9.068;2023-02-21T06:27:03;11.80;;;5.97;;
4873;SDS011;2451;49.970;9.068;2023-02-21T06:29:29;18.38;;;7.03;;
4873;SDS011;2451;49.970;9.068;2023-02-21T06:31:55;11.40;;;6.13;;
4873;SDS011;2451;49.970;9.068;2023-02-21T06:34:22;11.48;;;6.50;;
4873;SDS011;2451;49.970;9.068;2023-02-21T06:36:51;11.77;;;7.07;;
4873;SDS011;2451;49.970;9.068;2023-02-21T06:39:21;14.32;;;7.47;;
4873;SDS011;2451;49.970;9.068;2023-02-21T06:41:48;13.43;;;8.43;;
4873;SDS011;2451;49.970;9.068;2023-02-21T06:44:14;16.25;;;8.88;;
4873;SDS011;2451;49.970;9.068;2023-02-21T06:46:40;17.88;;;9.35;;
4873;SDS011;2451;49.970;9.068;2023-02-21T06:49:06;19.80;;;11.07;;
4873;SDS011;2451;49.970;9.068;2023-02-21T06:51:35;15.18;;;9.00;;
4873;SDS011;2451;49.970;9.068;2023-02-21T06:54:02;18.83;;;8.88;;
4873;SDS011;2451;49.970;9.068;2023-02-21T06:56:29;16.08;;;8.02;;
4873;SDS011;2451;49.970;9.068;2023-02-21T06:58:55;15.20;;;8.40;;
4873;SDS011;2451;49.970;9.068;2023-02-21T07:01:21;18.45;;;10.32;;
4873;SDS011;2451;49.970;9.068;2023-02-21T07:03:47;20.60;;;12.18;;
4873;SDS011;2451;49.970;9.068;2023-02-21T07:06:13;22.42;;;13.10;;
4873;SDS011;2451;49.970;9.068;2023-02-21T07:08:39;21.30;;;12.40;;
4873;SDS011;2451;49.970;9.068;2023-02-21T07:11:05;21.02;;;11.40;;
4873;SDS011;2451;49.970;9.068;2023-02-21T07:13:31;19.25;;;11.65;;
4873;SDS011;2451;49.970;9.068;2023-02-21T07:15:58;20.20;;;11.45;;
4873;SDS011;2451;49.970;9.068;2023-02-21T07:18:23;20.40;;;12.07;;
4873;SDS011;2451;49.970;9.068;2023-02-21T07:20:49;21.65;;;11.50;;
4873;SDS011;2451;49.970;9.068;2023-02-21T07:23:14;19.02;;;11.40;;
4873;SDS011;2451;49.970;9.068;2023-02-21T07:25:40;19.77;;;11.15;;
4873;SDS011;2451;49.970;9.068;2023-02-21T07:28:06;16.58;;;11.07;;
4873;SDS011;2451;49.970;9.068;2023-02-21T07:30:31;20.27;;;12.02;;
4873;SDS011;2451;49.970;9.068;2023-02-21T07:32:57;18.95;;;12.00;;
4873;SDS011;2451;49.970;9.068;2023-02-21T07:35:23;18.02;;;11.10;;
4873;SDS011;2451;49.970;9.068;2023-02-21T07:37:48;19.88;;;11.13;;
4873;SDS011;2451;49.970;9.068;2023-02-21T07:40:14;17.40;;;10.00;;
4873;SDS011;2451;49.970;9.068;2023-02-21T07:42:40;18.48;;;10.23;;
4873;SDS011;2451;49.970;9.068;2023-02-21T07:45:07;18.38;;;9.00;;
4873;SDS011;2451;49.970;9.068;2023-02-21T07:47:34;19.88;;;10.02;;
4873;SDS011;2451;49.970;9.068;2023-02-21T07:49:59;24.00;;;10.25;;
4873;SDS011;2451;49.970;9.068;2023-02-21T07:52:25;21.50;;;9.85;;
4873;SDS011;2451;49.970;9.068;2023-02-21T07:54:50;19.45;;;9.68;;
4873;SDS011;2451;49.970;9.068;2023-02-21T07:57:16;20.63;;;9.77;;
4873;SDS011;2451;49.970;9.068;2023-02-21T07:59:42;24.50;;;10.43;;
4873;SDS011;2451;49.970;9.068;2023-02-21T08:02:08;17.95;;;10.63;;
4873;SDS011;2451;49.970;9.068;2023-02-21T08:04:35;19.10;;;9.82;;
4873;SDS011;2451;49.970;9.068;2023-02-21T08:07:01;19.25;;;9.50;;
4873;SDS011;2451;49.970;9.068;2023-02-21T08:09:29;19.23;;;10.35;;
4873;SDS011;2451;49.970;9.068;2023-02-21T08:11:55;19.50;;;10.18;;
4873;SDS011;2451;49.970;9.068;2023-02-21T08:14:20;19.75;;;10.23;;
4873;SDS011;2451;49.970;9.068;2023-02-21T08:16:46;21.38;;;11.02;;
4873;SDS011;2451;49.970;9.068;2023-02-21T08:19:12;18.58;;;9.55;;
4873;SDS011;2451;49.970;9.068;2023-02-21T08:21:37;21.92;;;10.13;;
4873;SDS011;2451;49.970;9.068;2023-02-21T08:24:03;17.63;;;10.32;;
4873;SDS011;2451;49.970;9.068;2023-02-21T08:26:29;20.85;;;10.30;;
4873;SDS011;2451;49.970;9.068;2023-02-21T08:28:54;19.73;;;10.15;;
4873;SDS011;2451;49.970;9.068;2023-02-21T08:31:20;20.27;;;9.88;;
4873;SDS011;2451;49.970;9.068;2023-02-21T08:33:46;20.00;;;10.48;;
4873;SDS011;2451;49.970;9.068;2023-02-21T08:36:11;18.10;;;9.85;;
4873;SDS011;2451;49.970;9.068;2023-02-21T08:38:37;17.38;;;10.63;;
4873;SDS011;2451;49.970;9.068;2023-02-21T08:41:04;23.23;;;10.25;;
4873;SDS011;2451;49.970;9.068;2023-02-21T08:43:30;19.65;;;10.23;;
4873;SDS011;2451;49.970;9.068;2023-02-21T08:45:56;17.20;;;10.45;;
4873;SDS011;2451;49.970;9.068;2023-02-21T08:48:21;19.17;;;10.75;;
4873;SDS011;2451;49.970;9.068;2023-02-21T08:50:48;20.60;;;11.32;;
4873;SDS011;2451;49.970;9.068;2023-02-21T08:53:16;15.93;;;10.60;;
4873;SDS011;2451;49.970;9.068;2023-02-21T08:55:41;19.48;;;10.60;;
4873;SDS011;2451;49.970;9.068;2023-02-21T08:58:08;19.52;;;10.75;;
4873;SDS011;2451;49.970;9.068;2023-02-21T09:00:35;19.80;;;11.93;;
4873;SDS011;2451;49.970;9.068;2023-02-21T09:03:00;19.90;;;11.63;;
4873;SDS011;2451;49.970;9.068;2023-02-21T09:05:27;18.35;;;11.05;;
4873;SDS011;2451;49.970;9.068;2023-02-21T09:07:54;15.32;;;10.30;;
4873;SDS011;2451;49.970;9.068;2023-02-21T09:10:23;19.17;;;11.00;;
4873;SDS011;2451;49.970;9.068;2023-02-21T09:12:58;21.38;;;10.90;;
4873;SDS011;2451;49.970;9.068;2023-02-21T09:15:24;16.63;;;10.77;;
4873;SDS011;2451;49.970;9.068;2023-02-21T09:17:49;18.00;;;10.77;;
4873;SDS011;2451;49.970;9.068;2023-02-21T09:20:17;17.80;;;11.05;;
4873;SDS011;2451;49.970;9.068;2023-02-21T09:22:45;16.48;;;10.85;;
4873;SDS011;2451;49.970;9.068;2023-02-21T09:25:12;18.20;;;10.68;;
4873;SDS011;2451;49.970;9.068;2023-02-21T09:27:39;19.98;;;10.13;;
4873;SDS011;2451;49.970;9.068;2023-02-21T09:30:06;19.63;;;10.10;;
4873;SDS011;2451;49.970;9.068;2023-02-21T09:32:37;19.65;;;10.30;;
4873;SDS011;2451;49.970;9.068;2023-02-21T09:35:04;23.25;;;11.15;;
4873;SDS011;2451;49.970;9.068;2023-02-21T09:37:30;26.33;;;10.48;;
4873;SDS011;2451;49.970;9.068;2023-02-21T09:39:56;22.58;;;11.50;;
4873;SDS011;2451;49.970;9.068;2023-02-21T09:42:23;21.95;;;10.93;;
4873;SDS011;2451;49.970;9.068;2023-02-21T09:44:53;23.38;;;10.40;;
4873;SDS011;2451;49.970;9.068;2023-02-21T09:47:25;24.92;;;11.27;;
4873;SDS011;2451;49.970;9.068;2023-02-21T09:49:57;21.35;;;10.20;;
4873;SDS011;2451;49.970;9.068;2023-02-21T09:52:34;17.15;;;10.20;;
4873;SDS011;2451;49.970;9.068;2023-02-21T09:55:12;20.65;;;10.65;;
4873;SDS011;2451;49.970;9.068;2023-02-21T09:57:48;19.83;;;11.27;;
4873;SDS011;2451;49.970;9.068;2023-02-21T10:00:18;21.50;;;10.88;;
4873;SDS011;2451;49.970;9.068;2023-02-21T10:03:24;21.35;;;10.88;;
4873;SDS011;2451;49.970;9.068;2023-02-21T10:08:45;15.85;;;9.95;;
4873;SDS011;2451;49.970;9.068;2023-02-21T10:13:55;20.23;;;10.63;;
4873;SDS011;2451;49.970;9.068;2023-02-21T10:19:25;19.35;;;10.70;;
4873;SDS011;2451;49.970;9.068;2023-02-21T10:21:59;20.80;;;10.52;;
4873;SDS011;2451;49.970;9.068;2023-02-21T10:24:34;18.00;;;9.95;;
4873;SDS011;2451;49.970;9.068;2023-02-21T10:27:04;16.67;;;9.75;;
4873;SDS011;2451;49.970;9.068;2023-02-21T10:29:34;18.77;;;9.63;;
4873;SDS011;2451;49.970;9.068;2023-02-21T10:32:06;18.17;;;9.73;;
4873;SDS011;2451;49.970;9.068;2023-02-21T10:34:32;18.63;;;10.45;;
4873;SDS011;2451;49.970;9.068;2023-02-21T10:40:01;16.60;;;10.35;;
4873;SDS011;2451;49.970;9.068;2023-02-21T10:42:48;17.92;;;9.85;;
4873;SDS011;2451;49.970;9.068;2023-02-21T10:45:18;16.48;;;10.20;;
4873;SDS011;2451;49.970;9.068;2023-02-21T10:48:08;18.83;;;10.57;;
4873;SDS011;2451;49.970;9.068;2023-02-21T10:51:27;17.85;;;10.23;;
4873;SDS011;2451;49.970;9.068;2023-02-21T10:53:50;16.38;;;9.80;;
4873;SDS011;2451;49.970;9.068;2023-02-21T10:59:01;17.02;;;10.02;;
4873;SDS011;2451;49.970;9.068;2023-02-21T11:01:34;18.27;;;10.13;;
4873;SDS011;2451;49.970;9.068;2023-02-21T11:04:22;21.38;;;10.50;;
4873;SDS011;2451;49.970;9.068;2023-02-21T11:06:53;16.42;;;9.90;;
4873;SDS011;2451;49.970;9.068;2023-02-21T11:09:33;14.93;;;9.52;;
4873;SDS011;2451;49.970;9.068;2023-02-21T11:14:25;18.55;;;9.80;;
4873;SDS011;2451;49.970;9.068;2023-02-21T11:19:46;18.83;;;10.07;;
4873;SDS011;2451;49.970;9.068;2023-02-21T11:22:16;15.60;;;9.82;;
4873;SDS011;2451;49.970;9.068;2023-02-21T11:24:50;14.10;;;9.77;;
4873;SDS011;2451;49.970;9.068;2023-02-21T11:27:16;15.98;;;9.70;;
4873;SDS011;2451;49.970;9.068;2023-02-21T11:29:43;16.33;;;9.93;;
4873;SDS011;2451;49.970;9.068;2023-02-21T11:32:11;15.27;;;9.67;;
4873;SDS011;2451;49.970;9.068;2023-02-21T11:34:45;16.05;;;9.63;;
4873;SDS011;2451;49.970;9.068;2023-02-21T11:37:12;15.10;;;9.93;;
4873;SDS011;2451;49.970;9.068;2023-02-21T11:39:39;12.20;;;8.85;;
4873;SDS011;2451;49.970;9.068;2023-02-21T11:42:23;14.23;;;9.00;;
4873;SDS011;2451;49.970;9.068;2023-02-21T11:45:02;13.45;;;9.13;;
4873;SDS011;2451;49.970;9.068;2023-02-21T11:47:55;14.57;;;9.82;;
4873;SDS011;2451;49.970;9.068;2023-02-21T11:50:28;17.77;;;10.07;;
4873;SDS011;2451;49.970;9.068;2023-02-21T11:53:05;12.90;;;8.60;;
4873;SDS011;2451;49.970;9.068;2023-02-21T11:55:38;14.48;;;9.07;;
4873;SDS011;2451;49.970;9.068;2023-02-21T12:00:49;12.55;;;8.48;;
4873;SDS011;2451;49.970;9.068;2023-02-21T12:12:12;13.15;;;7.95;;
4873;SDS011;2451;49.970;9.068;2023-02-21T12:14:51;15.18;;;8.35;;
4873;SDS011;2451;49.970;9.068;2023-02-21T12:17:48;15.88;;;9.40;;
4873;SDS011;2451;49.970;9.068;2023-02-21T12:23:21;12.82;;;8.30;;
4873;SDS011;2451;49.970;9.068;2023-02-21T12:28:43;14.50;;;8.43;;
4873;SDS011;2451;49.970;9.068;2023-02-21T12:34:35;12.30;;;7.72;;
4873;SDS011;2451;49.970;9.068;2023-02-21T12:37:30;10.73;;;6.95;;
4873;SDS011;2451;49.970;9.068;2023-02-21T12:42:55;12.25;;;7.00;;
4873;SDS011;2451;49.970;9.068;2023-02-21T12:45:38;11.00;;;7.13;;
4873;SDS011;2451;49.970;9.068;2023-02-21T12:48:10;11.23;;;6.88;;
4873;SDS011;2451;49.970;9.068;2023-02-21T12:50:50;13.65;;;6.85;;
4873;SDS011;2451;49.970;9.068;2023-02-21T12:56:02;12.68;;;6.70;;
4873;SDS011;2451;49.970;9.068;2023-02-21T13:01:11;11.38;;;7.53;;
4873;SDS011;2451;49.970;9.068;2023-02-21T13:06:55;11.38;;;7.22;;
4873;SDS011;2451;49.970;9.068;2023-02-21T13:12:17;13.88;;;7.40;;
4873;SDS011;2451;49.970;9.068;2023-02-21T13:14:50;10.98;;;7.10;;
4873;SDS011;2451;49.970;9.068;2023-02-21T13:17:17;15.60;;;7.05;;
4873;SDS011;2451;49.970;9.068;2023-02-21T13:30:40;12.05;;;6.47;;
4873;SDS011;2451;49.970;9.068;2023-02-21T13:33:58;10.25;;;7.53;;
4873;SDS011;2451;49.970;9.068;2023-02-21T13:36:21;11.60;;;6.75;;
4873;SDS011;2451;49.970;9.068;2023-02-21T13:39:09;12.20;;;6.60;;
4873;SDS011;2451;49.970;9.068;2023-02-21T13:41:38;12.77;;;7.07;;
4873;SDS011;2451;49.970;9.068;2023-02-21T13:44:06;11.02;;;6.40;;
4873;SDS011;2451;49.970;9.068;2023-02-21T13:52:13;10.32;;;6.30;;
4873;SDS011;2451;49.970;9.068;2023-02-21T13:57:40;8.45;;;5.90;;
4873;SDS011;2451;49.970;9.068;2023-02-21T14:05:20;9.05;;;6.22;;
4873;SDS011;2451;49.970;9.068;2023-02-21T14:07:47;10.52;;;5.75;;
4873;SDS011;2451;49.970;9.068;2023-02-21T14:10:22;11.20;;;5.78;;
4873;SDS011;2451;49.970;9.068;2023-02-21T14:13:01;9.70;;;6.00;;
4873;SDS011;2451;49.970;9.068;2023-02-21T14:18:00;11.70;;;5.93;;
4873;SDS011;2451;49.970;9.068;2023-02-21T14:20:25;7.95;;;5.50;;
4873;SDS011;2451;49.970;9.068;2023-02-21T14:22:52;10.18;;;6.00;;
4873;SDS011;2451;49.970;9.068;2023-02-21T14:25:23;12.18;;;5.57;;
4873;SDS011;2451;49.970;9.068;2023-02-21T14:27:50;8.18;;;5.43;;
4873;SDS011;2451;49.970;9.068;2023-02-21T14:30:24;12.30;;;5.97;;
4873;SDS011;2451;49.970;9.068;2023-02-21T14:32:59;9.05;;;6.25;;
4873;SDS011;2451;49.970;9.068;2023-02-21T14:35:45;10.38;;;6.13;;
4873;SDS011;2451;49.970;9.068;2023-02-21T14:38:24;11.77;;;5.95;;
4873;SDS011;2451;49.970;9.068;2023-02-21T14:43:27;10.20;;;6.05;;
4873;SDS011;2451;49.970;9.068;2023-02-21T14:46:32;9.98;;;6.05;;
4873;SDS011;2451;49.970;9.068;2023-02-21T14:52:06;9.55;;;5.97;;
4873;SDS011;2451;49.970;9.068;2023-02-21T14:55:12;9.00;;;5.85;;
4873;SDS011;2451;49.970;9.068;2023-02-21T14:57:57;9.02;;;5.60;;
4873;SDS011;2451;49.970;9.068;2023-02-21T15:00:34;10.07;;;5.53;;
4873;SDS011;2451;49.970;9.068;2023-02-21T15:03:23;13.00;;;6.22;;
4873;SDS011;2451;49.970;9.068;2023-02-21T15:08:27;9.32;;;5.88;;
4873;SDS011;2451;49.970;9.068;2023-02-21T15:10:54;9.98;;;6.00;;
4873;SDS011;2451;49.970;9.068;2023-02-21T15:13:27;8.73;;;5.25;;
4873;SDS011;2451;49.970;9.068;2023-02-21T15:23:34;10.88;;;5.22;;
4873;SDS011;2451;49.970;9.068;2023-02-21T15:26:01;8.55;;;5.05;;
4873;SDS011;2451;49.970;9.068;2023-02-21T15:28:40;8.27;;;5.10;;
4873;SDS011;2451;49.970;9.068;2023-02-21T15:31:07;12.18;;;5.32;;
4873;SDS011;2451;49.970;9.068;2023-02-21T15:33:35;6.65;;;4.70;;
4873;SDS011;2451;49.970;9.068;2023-02-21T15:36:03;9.32;;;5.28;;
4873;SDS011;2451;49.970;9.068;2023-02-21T15:38:31;7.15;;;4.20;;
4873;SDS011;2451;49.970;9.068;2023-02-21T15:43:49;7.68;;;4.30;;
4873;SDS011;2451;49.970;9.068;2023-02-21T15:46:22;7.85;;;4.13;;
4873;SDS011;2451;49.970;9.068;2023-02-21T15:48:51;7.10;;;4.18;;
4873;SDS011;2451;49.970;9.068;2023-02-21T15:51:18;6.82;;;4.05;;
4873;SDS011;2451;49.970;9.068;2023-02-21T15:56:42;7.85;;;4.65;;
4873;SDS011;2451;49.970;9.068;2023-02-21T15:59:15;9.07;;;4.70;;
4873;SDS011;2451;49.970;9.068;2023-02-21T16:01:41;8.02;;;4.30;;
4873;SDS011;2451;49.970;9.068;2023-02-21T16:04:17;9.63;;;4.45;;
4873;SDS011;2451;49.970;9.068;2023-02-21T16:06:50;9.77;;;5.53;;
4873;SDS011;2451;49.970;9.068;2023-02-21T16:09:21;11.68;;;5.40;;
4873;SDS011;2451;49.970;9.068;2023-02-21T16:14:26;10.38;;;5.57;;
4873;SDS011;2451;49.970;9.068;2023-02-21T16:22:32;15.38;;;8.73;;
4873;SDS011;2451;49.970;9.068;2023-02-21T16:27:36;12.07;;;6.53;;
4873;SDS011;2451;49.970;9.068;2023-02-21T16:30:03;11.18;;;5.13;;
4873;SDS011;2451;49.970;9.068;2023-02-21T16:32:30;6.35;;;3.65;;
4873;SDS011;2451;49.970;9.068;2023-02-21T16:34:56;5.93;;;3.15;;
4873;SDS011;2451;49.970;9.068;2023-02-21T16:37:22;7.40;;;3.00;;
4873;SDS011;2451;49.970;9.068;2023-02-21T16:39:48;6.28;;;3.03;;
4873;SDS011;2451;49.970;9.068;2023-02-21T16:42:14;7.05;;;2.92;;
4873;SDS011;2451;49.970;9.068;2023-02-21T16:44:43;6.95;;;3.40;;
4873;SDS011;2451;49.970;9.068;2023-02-21T16:47:12;11.98;;;6.20;;
4873;SDS011;2451;49.970;9.068;2023-02-21T16:49:39;8.80;;;6.70;;
4873;SDS011;2451;49.970;9.068;2023-02-21T16:52:05;7.93;;;6.07;;
4873;SDS011;2451;49.970;9.068;2023-02-21T16:54:30;8.57;;;4.90;;
4873;SDS011;2451;49.970;9.068;2023-02-21T16:56:56;7.93;;;5.22;;
4873;SDS011;2451;49.970;9.068;2023-02-21T16:59:22;8.07;;;5.85;;
4873;SDS011;2451;49.970;9.068;2023-02-21T17:01:48;9.38;;;4.50;;
4873;SDS011;2451;49.970;9.068;2023-02-21T17:04:22;9.20;;;4.90;;
4873;SDS011;2451;49.970;9.068;2023-02-21T17:06:51;10.13;;;4.40;;
4873;SDS011;2451;49.970;9.068;2023-02-21T17:09:22;9.80;;;3.67;;
4873;SDS011;2451;49.970;9.068;2023-02-21T17:11:52;7.10;;;3.95;;
4873;SDS011;2451;49.970;9.068;2023-02-21T17:14:18;7.90;;;3.90;;
4873;SDS011;2451;49.970;9.068;2023-02-21T17:16:45;9.90;;;4.10;;
4873;SDS011;2451;49.970;9.068;2023-02-21T17:19:11;8.95;;;4.07;;
4873;SDS011;2451;49.970;9.068;2023-02-21T17:21:39;7.30;;;3.83;;
4873;SDS011;2451;49.970;9.068;2023-02-21T17:24:05;7.88;;;3.80;;
4873;SDS011;2451;49.970;9.068;2023-02-21T17:26:31;8.00;;;3.58;;
4873;SDS011;2451;49.970;9.068;2023-02-21T17:28:56;9.60;;;3.83;;
4873;SDS011;2451;49.970;9.068;2023-02-21T17:31:22;6.75;;;3.78;;
4873;SDS011;2451;49.970;9.068;2023-02-21T17:33:47;9.55;;;4.22;;
4873;SDS011;2451;49.970;9.068;2023-02-21T17:36:16;7.95;;;3.75;;
4873;SDS011;2451;49.970;9.068;2023-02-21T17:38:44;6.95;;;3.85;;
4873;SDS011;2451;49.970;9.068;2023-02-21T17:41:11;9.65;;;3.80;;
4873;SDS011;2451;49.970;9.068;2023-02-21T17:43:39;6.72;;;4.05;;
4873;SDS011;2451;49.970;9.068;2023-02-21T17:46:07;7.10;;;3.67;;
4873;SDS011;2451;49.970;9.068;2023-02-21T17:48:34;8.07;;;3.85;;